Time;durP1;ratioP1;P1;durP2;ratioP2;P2;SDS_P1;SDS_P2;PMS_P1;PMS_P2;Temp;Humidity;BMP_temperature;BMP_pressure;BME280_temperature;BME280_humidity;BME280_pressure;Samples;Min_cycle;Max_cycle;Signal;HPM_P1;HPM_P2
2022/05/23 00:00:51;;;;;;;9.38;6.38;;;21.50;74.40;;;;;;5049445;28;20029;-75
2022/05/23 00:03:18;;;;;;;10.80;6.30;;;21.50;73.90;;;;;;5075110;28;20025;-75
2022/05/23 00:05:43;;;;;;;8.73;6.43;;;21.30;74.50;;;;;;5064143;28;20082;-75
2022/05/23 00:08:10;;;;;;;10.27;6.47;;;21.40;74.40;;;;;;5035068;28;20060;-75
2022/05/23 00:10:36;;;;;;;11.88;7.45;;;21.40;74.30;;;;;;5033641;28;20044;-75
2022/05/23 00:13:01;;;;;;;11.77;6.80;;;21.40;74.10;;;;;;5050820;28;20017;-75
2022/05/23 00:15:27;;;;;;;15.32;8.85;;;21.30;74.90;;;;;;5054770;28;20033;-75
2022/05/23 00:17:55;;;;;;;16.45;8.43;;;21.30;75.40;;;;;;5053510;28;20094;-76
2022/05/23 00:20:22;;;;;;;15.73;7.68;;;21.30;75.00;;;;;;5046783;28;20013;-75
2022/05/23 00:22:49;;;;;;;11.27;8.00;;;21.30;75.50;;;;;;5054642;28;20021;-75
2022/05/23 00:25:15;;;;;;;15.68;8.18;;;21.20;75.20;;;;;;5054715;28;20086;-75
2022/05/23 00:30:28;;;;;;;18.02;8.98;;;21.10;75.50;;;;;;5034125;28;20095;-75
2022/05/23 00:35:43;;;;;;;14.70;9.23;;;21.00;75.30;;;;;;5047837;28;20052;-75
2022/05/23 00:38:08;;;;;;;12.95;7.82;;;20.90;75.30;;;;;;5033166;28;20049;-77
2022/05/23 00:43:40;;;;;;;14.35;8.70;;;20.80;74.50;;;;;;5034315;28;20040;-75
2022/05/23 00:46:06;;;;;;;15.20;8.00;;;20.80;74.30;;;;;;5032980;28;20025;-75
2022/05/23 00:48:32;;;;;;;16.63;8.30;;;20.80;74.20;;;;;;5033089;28;20446;-76
2022/05/23 00:51:10;;;;;;;12.88;8.63;;;20.70;74.10;;;;;;5034144;28;20089;-75
2022/05/23 00:53:53;;;;;;;10.57;7.72;;;20.60;73.60;;;;;;5033839;28;20033;-75
2022/05/23 00:56:30;;;;;;;14.60;7.47;;;20.50;74.00;;;;;;5033812;28;20041;-75
2022/05/23 00:59:01;;;;;;;13.82;7.35;;;20.40;73.60;;;;;;5034106;28;20113;-75
2022/05/23 01:01:30;;;;;;;9.30;6.82;;;20.30;73.90;;;;;;5053564;28;20056;-77
2022/05/23 01:03:55;;;;;;;13.57;6.88;;;20.30;73.70;;;;;;5053948;28;20060;-75
2022/05/23 01:06:21;;;;;;;10.32;6.57;;;20.10;74.00;;;;;;5039135;28;20620;-75
2022/05/23 01:08:54;;;;;;;12.38;6.93;;;20.10;74.10;;;;;;5033977;28;20646;-77
2022/05/23 01:11:20;;;;;;;10.52;6.43;;;20.10;74.00;;;;;;5033887;28;20032;-77
2022/05/23 01:13:48;;;;;;;14.55;7.60;;;20.00;73.80;;;;;;5040679;28;20472;-75
2022/05/23 01:16:14;;;;;;;13.80;7.00;;;20.10;73.90;;;;;;5053205;28;20025;-75
2022/05/23 01:18:40;;;;;;;12.05;6.88;;;20.00;74.00;;;;;;5044864;28;20541;-77
2022/05/23 01:21:11;;;;;;;14.93;8.00;;;20.00;74.00;;;;;;5050461;28;20029;-75
2022/05/23 01:23:49;;;;;;;20.15;8.15;;;19.90;75.60;;;;;;5044202;28;20048;-75
2022/05/23 01:26:14;;;;;;;20.35;8.68;;;19.80;78.20;;;;;;5054456;28;20035;-75
2022/05/23 01:28:42;;;;;;;20.35;8.38;;;19.60;82.80;;;;;;5040846;28;20113;-74
2022/05/23 01:31:10;;;;;;;14.27;8.93;;;19.40;82.50;;;;;;5033549;28;20034;-76
2022/05/23 01:33:36;;;;;;;15.68;9.23;;;19.40;80.70;;;;;;5047364;28;20078;-75
2022/05/23 01:36:05;;;;;;;16.60;9.23;;;19.60;78.50;;;;;;5033204;28;20025;-75
2022/05/23 01:38:30;;;;;;;14.57;9.48;;;19.60;76.70;;;;;;5033450;28;20717;-75
2022/05/23 01:40:58;;;;;;;14.65;9.20;;;19.60;76.60;;;;;;5033422;28;20450;-75
2022/05/23 01:43:25;;;;;;;15.10;9.52;;;19.60;75.80;;;;;;5032015;28;20057;-75
2022/05/23 01:45:51;;;;;;;15.55;9.52;;;19.60;76.10;;;;;;5033895;28;20022;-75
2022/05/23 01:48:17;;;;;;;16.58;10.80;;;19.70;75.80;;;;;;5033344;28;20033;-75
2022/05/23 01:50:42;;;;;;;18.40;10.25;;;19.70;75.20;;;;;;5033021;28;20076;-75
2022/05/23 01:53:33;;;;;;;19.30;9.70;;;19.70;75.30;;;;;;5033041;28;20087;-75
2022/05/23 01:56:05;;;;;;;12.63;9.52;;;19.60;75.30;;;;;;5033111;28;20583;-76
2022/05/23 02:01:16;;;;;;;15.32;9.88;;;19.70;75.10;;;;;;5033515;28;20725;-75
2022/05/23 02:03:47;;;;;;;20.58;10.40;;;19.70;75.00;;;;;;5033196;28;20071;-75
2022/05/23 02:06:13;;;;;;;15.25;9.40;;;19.50;75.20;;;;;;5033212;28;20040;-75
2022/05/23 02:08:39;;;;;;;16.98;9.90;;;19.50;75.80;;;;;;5033328;28;20025;-75
2022/05/23 02:11:09;;;;;;;18.88;9.93;;;19.50;75.60;;;;;;5031681;28;20510;-75
2022/05/23 02:13:36;;;;;;;16.42;9.52;;;19.50;75.50;;;;;;5033140;28;20179;-75
2022/05/23 02:16:10;;;;;;;13.18;9.65;;;19.50;75.30;;;;;;5033039;28;20033;-74
2022/05/23 02:18:36;;;;;;;14.70;9.43;;;19.30;75.50;;;;;;5033032;28;20037;-75
2022/05/23 02:21:02;;;;;;;15.82;10.02;;;19.20;76.20;;;;;;5041951;28;20025;-77
2022/05/23 02:23:27;;;;;;;16.77;10.27;;;19.30;75.90;;;;;;5053050;28;20020;-75
2022/05/23 02:25:53;;;;;;;13.13;9.63;;;19.20;75.90;;;;;;5052894;28;20086;-75
2022/05/23 02:28:19;;;;;;;15.43;9.00;;;19.30;75.90;;;;;;5051676;28;20051;-75
2022/05/23 02:30:47;;;;;;;15.65;9.40;;;19.20;76.20;;;;;;5052706;28;20084;-75
2022/05/23 02:33:18;;;;;;;15.20;8.75;;;19.10;76.20;;;;;;5052831;28;20021;-75
2022/05/23 02:35:44;;;;;;;15.35;8.98;;;19.10;76.20;;;;;;5034989;28;20041;-75
2022/05/23 02:38:10;;;;;;;11.25;8.23;;;19.10;76.20;;;;;;5031861;28;20024;-77
2022/05/23 02:40:36;;;;;;;18.48;9.02;;;19.00;75.90;;;;;;5032579;28;20470;-77
2022/05/23 02:43:01;;;;;;;14.38;8.25;;;19.00;76.40;;;;;;5052835;28;20050;-75
2022/05/23 02:45:28;;;;;;;12.90;8.52;;;18.90;76.80;;;;;;5048337;28;20112;-75
2022/05/23 02:47:53;;;;;;;15.68;7.82;;;19.00;76.30;;;;;;5032972;28;20029;-75
2022/05/23 02:50:19;;;;;;;15.98;9.85;;;19.00;76.00;;;;;;5032544;28;20033;-75
2022/05/23 02:52:45;;;;;;;12.05;8.07;;;18.90;76.30;;;;;;5031408;28;20047;-75
2022/05/23 02:55:11;;;;;;;11.82;8.18;;;19.00;76.20;;;;;;5032792;28;20051;-75
2022/05/23 02:57:37;;;;;;;13.82;7.90;;;18.90;75.90;;;;;;5031292;28;20518;-77
2022/05/23 03:00:06;;;;;;;11.50;6.88;;;18.90;76.00;;;;;;5032674;28;20092;-74
2022/05/23 03:05:15;;;;;;;9.55;5.93;;;18.80;75.10;;;;;;5036357;28;20128;-75
2022/05/23 03:07:41;;;;;;;11.00;6.80;;;18.80;75.60;;;;;;5035786;28;20061;-74
2022/05/23 03:10:07;;;;;;;13.30;6.10;;;18.70;75.80;;;;;;5036198;28;20064;-75
2022/05/23 03:12:34;;;;;;;11.18;5.45;;;18.60;76.30;;;;;;5035937;28;20021;-77
2022/05/23 03:15:00;;;;;;;9.57;5.70;;;18.60;75.40;;;;;;5036082;28;20025;-77
2022/05/23 03:17:26;;;;;;;11.23;6.70;;;18.50;76.30;;;;;;5035913;28;20025;-74
2022/05/23 03:19:52;;;;;;;10.55;6.28;;;18.50;76.10;;;;;;5035421;28;20032;-76
2022/05/23 03:27:47;;;;;;;12.40;6.85;;;18.60;76.10;;;;;;5055923;28;20131;-77
2022/05/23 03:30:13;;;;;;;11.90;6.97;;;18.60;75.90;;;;;;5055849;28;20040;-77
2022/05/23 03:32:39;;;;;;;16.08;7.43;;;18.60;76.00;;;;;;5054193;28;20518;-77
2022/05/23 03:35:07;;;;;;;10.07;7.15;;;18.60;76.00;;;;;;5035742;28;20041;-77
2022/05/23 03:37:33;;;;;;;11.65;7.22;;;18.70;75.60;;;;;;5035770;28;20214;-74
2022/05/23 03:40:00;;;;;;;10.98;6.63;;;18.70;75.30;;;;;;5035463;28;20029;-75
2022/05/23 03:42:26;;;;;;;14.93;7.45;;;18.70;75.30;;;;;;5054781;28;20086;-74
2022/05/23 03:44:52;;;;;;;17.63;7.38;;;18.60;75.50;;;;;;5055438;28;20037;-76
2022/05/23 03:47:17;;;;;;;13.60;7.43;;;18.70;75.50;;;;;;5052409;28;20033;-76
2022/05/23 03:49:43;;;;;;;14.82;6.75;;;18.70;75.40;;;;;;5050866;28;20120;-75
2022/05/23 03:52:09;;;;;;;12.25;6.88;;;18.70;75.30;;;;;;5035454;28;20017;-74
2022/05/23 03:54:34;;;;;;;15.43;7.47;;;18.70;75.20;;;;;;5035297;28;20664;-77
2022/05/23 03:57:02;;;;;;;11.38;7.15;;;18.60;75.10;;;;;;5035103;28;20079;-77
2022/05/23 03:59:29;;;;;;;11.07;6.55;;;18.60;75.20;;;;;;5034799;28;20033;-76
2022/05/23 04:01:56;;;;;;;12.60;7.13;;;18.60;75.40;;;;;;5035128;28;20025;-74
2022/05/23 04:04:49;;;;;;;13.30;7.30;;;18.60;75.30;;;;;;5035166;28;20021;-74
2022/05/23 04:07:15;;;;;;;11.45;6.97;;;18.50;75.60;;;;;;5035094;28;20494;-75
2022/05/23 04:09:42;;;;;;;12.30;7.03;;;18.50;75.60;;;;;;5035169;28;20025;-74
2022/05/23 04:12:08;;;;;;;11.18;7.22;;;18.50;75.80;;;;;;5034831;28;20018;-74
2022/05/23 04:14:34;;;;;;;10.52;7.13;;;18.50;75.70;;;;;;5035016;28;20040;-74
2022/05/23 04:16:59;;;;;;;13.90;7.57;;;18.50;75.50;;;;;;5034877;28;20097;-77
2022/05/23 04:19:25;;;;;;;13.00;6.78;;;18.40;75.70;;;;;;5041078;28;20029;-75
2022/05/23 04:21:52;;;;;;;13.60;6.82;;;18.50;75.70;;;;;;5046913;28;20014;-74
2022/05/23 04:24:18;;;;;;;20.17;7.57;;;18.40;75.50;;;;;;5034721;28;20052;-74
2022/05/23 04:26:45;;;;;;;14.32;7.22;;;18.40;75.40;;;;;;5034583;28;20067;-74
2022/05/23 04:29:11;;;;;;;11.63;7.07;;;18.40;75.30;;;;;;5049846;28;20044;-74
2022/05/23 04:31:37;;;;;;;13.65;7.22;;;18.40;75.50;;;;;;5054950;28;20029;-77
2022/05/23 04:36:49;;;;;;;18.35;7.88;;;18.40;75.40;;;;;;5034549;28;20036;-75
2022/05/23 04:39:14;;;;;;;10.57;6.95;;;18.30;75.30;;;;;;5034858;28;20033;-75
2022/05/23 04:41:40;;;;;;;15.90;7.55;;;18.30;75.70;;;;;;5054197;28;20035;-74
2022/05/23 04:44:15;;;;;;;12.85;7.50;;;18.30;75.70;;;;;;5053279;28;20538;-77
2022/05/23 04:49:39;;;;;;;10.80;7.20;;;18.30;75.80;;;;;;5054008;28;20079;-76
2022/05/23 04:49:50;;;;;;;13.23;6.75;;;18.30;75.80;;;;;;5053123;28;20025;-76
2022/05/23 04:52:22;;;;;;;10.82;6.78;;;18.10;76.10;;;;;;5050961;28;20029;-77
2022/05/23 04:54:49;;;;;;;14.38;6.88;;;18.20;75.80;;;;;;5033903;28;20072;-76
2022/05/23 04:57:15;;;;;;;8.45;6.22;;;18.20;75.90;;;;;;5033634;28;20075;-76
2022/05/23 04:59:41;;;;;;;10.82;6.53;;;18.10;76.10;;;;;;5033742;28;20104;-76
2022/05/23 05:02:07;;;;;;;10.65;6.75;;;18.10;75.90;;;;;;5033490;28;20033;-76
2022/05/23 05:04:33;;;;;;;10.90;7.50;;;18.10;75.90;;;;;;5052328;28;20032;-77
2022/05/23 05:07:02;;;;;;;13.35;7.55;;;18.00;75.60;;;;;;5053540;28;20044;-75
2022/05/23 05:09:28;;;;;;;15.23;8.07;;;18.00;75.90;;;;;;5036344;28;20399;-76
2022/05/23 05:11:53;;;;;;;19.17;7.60;;;18.00;75.70;;;;;;5042856;28;20052;-84
2022/05/23 05:14:19;;;;;;;15.73;8.20;;;17.90;75.90;;;;;;5052205;28;20040;-78
2022/05/23 05:16:45;;;;;;;18.48;10.77;;;17.90;76.20;;;;;;5033422;28;20108;-76
2022/05/23 05:19:11;;;;;;;18.05;10.15;;;17.90;75.90;;;;;;5046641;28;20035;-76
2022/05/23 05:21:36;;;;;;;20.38;10.57;;;17.80;75.90;;;;;;5052980;28;20534;-80
2022/05/23 05:24:03;;;;;;;18.10;11.05;;;17.70;75.50;;;;;;5051909;28;20666;-76
2022/05/23 05:26:29;;;;;;;18.42;9.75;;;17.80;75.50;;;;;;5052174;28;20767;-79
2022/05/23 05:28:55;;;;;;;17.85;9.85;;;17.80;74.80;;;;;;5053309;28;20027;-77
2022/05/23 05:31:46;;;;;;;18.25;10.73;;;17.70;74.70;;;;;;5052069;28;20060;-82
2022/05/23 05:34:21;;;;;;;14.93;9.60;;;17.70;73.70;;;;;;5036289;28;20047;-76
2022/05/23 05:36:52;;;;;;;14.63;9.13;;;17.60;74.00;;;;;;5049559;28;20029;-76
2022/05/23 05:39:22;;;;;;;15.15;7.13;;;17.50;73.40;;;;;;5041967;28;20108;-77
2022/05/23 05:41:53;;;;;;;13.13;8.57;;;17.40;72.60;;;;;;5047155;28;20379;-77
2022/05/23 05:44:22;;;;;;;13.90;8.00;;;17.40;72.60;;;;;;5050554;28;20309;-78
2022/05/23 05:46:51;;;;;;;13.57;7.90;;;17.20;72.90;;;;;;5052041;28;20036;-77
2022/05/23 05:49:24;;;;;;;13.07;8.02;;;17.20;72.80;;;;;;5049361;28;20017;-78
2022/05/23 05:51:54;;;;;;;11.25;7.03;;;17.20;73.00;;;;;;5049414;28;20041;-77
2022/05/23 05:54:22;;;;;;;12.95;6.95;;;17.30;72.80;;;;;;5043845;28;20032;-79
2022/05/23 05:56:50;;;;;;;11.23;6.35;;;17.30;72.30;;;;;;5052013;28;20036;-78
2022/05/23 05:59:17;;;;;;;11.95;6.45;;;17.20;72.30;;;;;;5046923;28;20040;-77
2022/05/23 06:01:43;;;;;;;12.80;6.60;;;17.10;72.40;;;;;;5052113;28;20028;-77
2022/05/23 06:04:08;;;;;;;10.50;5.70;;;17.00;72.80;;;;;;5049841;28;20025;-78
2022/05/23 06:12:03;;;;;;;8.98;5.50;;;16.90;72.80;;;;;;5046390;28;20040;-77
2022/05/23 06:14:29;;;;;;;12.50;5.93;;;16.90;72.90;;;;;;5050213;28;20021;-77
2022/05/23 06:16:55;;;;;;;8.20;5.13;;;16.90;72.80;;;;;;5050672;28;20033;-77
2022/05/23 06:19:21;;;;;;;9.98;4.78;;;16.80;72.90;;;;;;5051513;28;20028;-78
2022/05/23 06:21:46;;;;;;;12.80;5.20;;;16.80;73.20;;;;;;5049910;28;20027;-77
2022/05/23 06:24:12;;;;;;;6.38;3.88;;;16.80;72.90;;;;;;5048592;28;20069;-77
2022/05/23 06:26:38;;;;;;;9.10;3.67;;;16.80;73.00;;;;;;5040698;28;20063;-78
2022/05/23 06:29:04;;;;;;;6.25;4.32;;;16.70;72.70;;;;;;5045543;28;20448;-77
2022/05/23 06:31:30;;;;;;;8.23;3.30;;;16.70;72.80;;;;;;5048809;28;20040;-76
2022/05/23 06:33:56;;;;;;;5.70;3.22;;;16.70;72.70;;;;;;5046371;28;20029;-78
2022/05/23 06:36:22;;;;;;;6.38;3.28;;;16.70;72.40;;;;;;5042838;28;20056;-81
2022/05/23 06:38:48;;;;;;;7.60;3.30;;;16.60;72.90;;;;;;5048959;28;20044;-80
2022/05/23 06:41:15;;;;;;;6.55;2.85;;;16.50;72.80;;;;;;5054982;28;20066;-82
2022/05/23 06:43:43;;;;;;;5.65;2.75;;;16.30;73.70;;;;;;5054467;28;20025;-82
2022/05/23 06:46:10;;;;;;;5.40;2.90;;;16.30;73.50;;;;;;5053525;28;20590;-82
2022/05/23 06:48:36;;;;;;;6.57;3.22;;;16.40;73.90;;;;;;5055748;28;20044;-82
2022/05/23 06:51:02;;;;;;;6.55;2.80;;;16.40;73.30;;;;;;5054443;28;20538;-82
2022/05/23 06:53:29;;;;;;;4.90;2.90;;;16.50;73.70;;;;;;5051574;28;20021;-82
2022/05/23 06:55:55;;;;;;;5.35;2.90;;;16.50;73.50;;;;;;5054285;28;20072;-82
2022/05/23 06:58:21;;;;;;;7.53;2.97;;;16.50;73.80;;;;;;5052202;28;20016;-82
2022/05/23 07:00:52;;;;;;;5.47;2.83;;;16.50;73.40;;;;;;5049167;28;20087;-82
2022/05/23 07:03:18;;;;;;;6.70;2.97;;;16.50;73.80;;;;;;5033176;28;20021;-82
2022/05/23 07:14:00;;;;;;;4.97;3.45;;;16.50;73.90;;;;;;5036144;28;20056;-82
2022/05/23 07:16:28;;;;;;;7.72;3.88;;;16.50;73.80;;;;;;5030550;28;20102;-82
2022/05/23 07:18:54;;;;;;;5.32;3.50;;;16.60;73.70;;;;;;5048011;28;20018;-82
2022/05/23 07:21:20;;;;;;;5.85;3.53;;;16.70;73.60;;;;;;5060156;28;20087;-82
2022/05/23 07:23:46;;;;;;;5.07;3.30;;;16.80;73.40;;;;;;5035845;28;20021;-82
2022/05/23 07:26:19;;;;;;;8.05;3.60;;;16.80;73.40;;;;;;5030514;28;20034;-80
2022/05/23 07:28:46;;;;;;;6.47;3.90;;;16.80;73.90;;;;;;5015825;28;20052;-82
2022/05/23 07:31:14;;;;;;;5.60;3.95;;;16.80;73.70;;;;;;5015861;28;20034;-82
2022/05/23 07:33:40;;;;;;;6.35;3.90;;;16.80;73.70;;;;;;5060697;28;20079;-82
2022/05/23 07:36:07;;;;;;;5.93;3.53;;;16.90;73.50;;;;;;5035335;28;20057;-80
2022/05/23 07:38:33;;;;;;;7.05;4.10;;;16.90;73.60;;;;;;5035003;28;20547;-80
2022/05/23 07:41:00;;;;;;;9.57;4.40;;;16.90;73.90;;;;;;5035484;28;20101;-82
2022/05/23 07:43:25;;;;;;;7.40;3.92;;;16.90;73.90;;;;;;5042032;28;20407;-80
2022/05/23 07:45:53;;;;;;;6.30;3.45;;;17.00;73.80;;;;;;5047286;28;20057;-80
2022/05/23 07:48:19;;;;;;;7.15;4.32;;;17.00;74.10;;;;;;5015175;28;20022;-80
2022/05/23 07:50:48;;;;;;;8.23;4.95;;;16.90;74.20;;;;;;5047913;28;20034;-82
2022/05/23 08:01:27;;;;;;;9.90;4.75;;;17.00;74.40;;;;;;5015578;28;20080;-82
2022/05/23 08:03:54;;;;;;;7.90;4.47;;;17.10;74.40;;;;;;5054796;28;20092;-82
2022/05/23 08:06:20;;;;;;;7.25;4.75;;;17.10;74.60;;;;;;5034919;28;20041;-82
2022/05/23 08:08:46;;;;;;;8.23;4.25;;;17.10;74.60;;;;;;5035111;28;20030;-80
2022/05/23 08:11:13;;;;;;;8.60;4.35;;;17.20;74.40;;;;;;5033604;28;20492;-80
2022/05/23 08:13:45;;;;;;;7.75;4.43;;;17.20;74.60;;;;;;5033059;28;20064;-82
2022/05/23 08:16:10;;;;;;;8.35;4.68;;;17.20;74.40;;;;;;5034640;28;20037;-82
2022/05/23 08:18:36;;;;;;;8.73;4.63;;;17.20;74.50;;;;;;5017573;28;20045;-80
2022/05/23 08:21:02;;;;;;;9.15;4.38;;;17.20;74.60;;;;;;5023656;28;20393;-80
2022/05/23 08:23:29;;;;;;;9.43;4.63;;;17.30;74.70;;;;;;5014590;28;20021;-80
2022/05/23 08:25:55;;;;;;;8.32;4.07;;;17.40;74.30;;;;;;5018590;28;20017;-80
2022/05/23 08:28:21;;;;;;;13.18;3.40;;;17.40;74.50;;;;;;5034540;28;20076;-81
2022/05/23 08:30:47;;;;;;;6.72;2.95;;;17.50;74.40;;;;;;5032890;28;20791;-82
2022/05/23 08:33:12;;;;;;;5.05;2.55;;;17.50;74.10;;;;;;5033893;28;20107;-82
2022/05/23 08:35:39;;;;;;;4.35;2.38;;;17.50;73.60;;;;;;5019112;28;20065;-81
2022/05/23 08:38:04;;;;;;;5.00;2.78;;;17.50;73.90;;;;;;5029869;28;20668;-82
2022/05/23 08:40:59;;;;;;;4.40;2.22;;;17.50;74.10;;;;;;5014212;28;20583;-82
2022/05/23 08:43:49;;;;;;;5.25;2.38;;;17.50;74.00;;;;;;5013375;28;20063;-81
2022/05/23 08:46:27;;;;;;;4.72;2.60;;;17.50;73.90;;;;;;5022198;28;20081;-82
2022/05/23 08:49:04;;;;;;;7.28;2.33;;;17.50;74.00;;;;;;5013819;28;20056;-82
2022/05/23 08:51:49;;;;;;;4.85;2.50;;;17.60;73.80;;;;;;5014299;28;20532;-82
2022/05/23 08:54:30;;;;;;;5.32;2.28;;;17.70;73.70;;;;;;5029617;28;20033;-82
2022/05/23 08:56:57;;;;;;;4.38;2.15;;;17.70;73.60;;;;;;5029031;28;20057;-82
2022/05/23 08:59:29;;;;;;;5.45;2.33;;;17.70;73.90;;;;;;5012685;28;20041;-82
2022/05/23 09:02:03;;;;;;;4.10;2.55;;;17.60;73.90;;;;;;5013493;28;20502;-82
2022/05/23 09:04:38;;;;;;;4.32;2.58;;;17.60;74.00;;;;;;5014129;28;20045;-82
2022/05/23 09:07:06;;;;;;;5.45;2.50;;;17.60;74.00;;;;;;5013497;28;20100;-82
2022/05/23 09:09:34;;;;;;;3.90;2.20;;;17.70;74.00;;;;;;5029270;28;20048;-82
2022/05/23 09:12:09;;;;;;;4.40;2.67;;;17.80;73.80;;;;;;5026931;28;20025;-82
2022/05/23 09:14:35;;;;;;;5.03;2.63;;;17.80;73.90;;;;;;5012710;28;20045;-82
2022/05/23 09:17:03;;;;;;;4.57;2.78;;;17.80;74.10;;;;;;5045635;28;20029;-82
2022/05/23 09:19:40;;;;;;;5.07;2.28;;;17.80;74.20;;;;;;5012542;28;20061;-82
2022/05/23 09:22:19;;;;;;;6.43;3.08;;;18.00;74.10;;;;;;5064672;28;20026;-82
2022/05/23 09:24:48;;;;;;;7.88;2.88;;;18.00;73.80;;;;;;5033295;28;20491;-82
2022/05/23 09:27:37;;;;;;;7.53;3.53;;;18.20;73.80;;;;;;5028062;28;20061;-82
2022/05/23 09:30:09;;;;;;;6.03;3.05;;;18.30;73.20;;;;;;5013742;28;20113;-82
2022/05/23 09:32:37;;;;;;;8.30;3.97;;;18.40;72.80;;;;;;5019298;28;20025;-82
2022/05/23 09:35:22;;;;;;;8.27;4.28;;;18.60;72.80;;;;;;5031887;28;20041;-82
2022/05/23 09:38:16;;;;;;;8.43;4.55;;;18.70;73.00;;;;;;5028216;28;20057;-82
2022/05/23 09:40:42;;;;;;;7.80;3.88;;;18.70;72.50;;;;;;5025910;28;20095;-82
2022/05/23 09:49:09;;;;;;;7.97;4.07;;;18.30;73.70;;;;;;5013923;28;19912;-82
2022/05/23 09:51:56;;;;;;;8.48;4.88;;;18.20;73.40;;;;;;5013404;28;20054;-82
2022/05/23 09:54:37;;;;;;;7.70;4.82;;;18.00;74.10;;;;;;5043991;28;20088;-82
2022/05/23 09:57:24;;;;;;;7.88;4.78;;;18.00;74.70;;;;;;5033002;28;20103;-82
2022/05/23 09:59:58;;;;;;;9.93;5.57;;;18.20;74.90;;;;;;5012898;28;20049;-82
2022/05/23 10:02:29;;;;;;;8.38;4.78;;;18.30;75.00;;;;;;5012093;28;20028;-82
2022/05/23 10:04:56;;;;;;;8.77;4.93;;;18.70;74.10;;;;;;5014438;28;20064;-82
2022/05/23 10:07:37;;;;;;;7.43;4.78;;;19.00;73.60;;;;;;5021899;28;20032;-82
2022/05/23 10:10:28;;;;;;;8.55;5.18;;;19.10;73.00;;;;;;5013171;28;20631;-82
2022/05/23 10:13:12;;;;;;;10.70;4.85;;;19.20;73.20;;;;;;5030691;28;20039;-82
2022/05/23 10:15:47;;;;;;;9.32;4.53;;;19.30;72.60;;;;;;5048866;28;20096;-82
2022/05/23 10:18:29;;;;;;;8.27;3.70;;;19.90;71.70;;;;;;5016285;28;20026;-81
2022/05/23 10:20:56;;;;;;;4.68;2.80;;;20.50;70.40;;;;;;5026323;28;20025;-83
2022/05/23 10:23:26;;;;;;;4.65;2.78;;;21.20;68.30;;;;;;5037025;28;20021;-82
2022/05/23 10:26:15;;;;;;;4.75;1.95;;;21.50;66.30;;;;;;5031683;28;20381;-80
2022/05/23 10:28:50;;;;;;;5.23;2.13;;;22.10;64.20;;;;;;5017088;28;20030;-80
2022/05/23 10:31:27;;;;;;;4.10;2.55;;;22.10;63.60;;;;;;5017038;28;20029;-80
2022/05/23 10:34:05;;;;;;;6.97;2.53;;;22.20;63.00;;;;;;5031715;28;20030;-80
2022/05/23 10:36:31;;;;;;;6.25;2.58;;;22.40;62.00;;;;;;5036513;28;20101;-80
2022/05/23 10:42:15;;;;;;;4.22;2.00;;;22.20;62.10;;;;;;5016997;28;20052;-79
2022/05/23 10:45:19;;;;;;;7.93;1.90;;;22.10;62.80;;;;;;5031956;28;20036;-80
2022/05/23 10:48:06;;;;;;;6.10;2.45;;;22.30;61.50;;;;;;5016755;28;20026;-80
2022/05/23 10:51:01;;;;;;;7.93;2.17;;;22.30;62.00;;;;;;5016652;28;20029;-80
2022/05/23 10:53:49;;;;;;;4.88;1.90;;;22.30;61.60;;;;;;5016558;28;20018;-80
2022/05/23 10:56:27;;;;;;;5.95;2.35;;;22.20;61.50;;;;;;5027068;28;20176;-80
2022/05/23 10:59:14;;;;;;;4.22;2.35;;;22.30;62.70;;;;;;5014872;28;20026;-80
2022/05/23 11:02:01;;;;;;;3.05;1.77;;;22.50;61.50;;;;;;5016489;28;20061;-80
2022/05/23 11:04:30;;;;;;;4.38;2.40;;;22.70;61.30;;;;;;5016294;28;20034;-80
2022/05/23 11:06:58;;;;;;;7.72;1.90;;;22.70;61.80;;;;;;5016317;28;20034;-80
2022/05/23 11:09:49;;;;;;;4.90;1.98;;;22.50;63.10;;;;;;5016276;28;20036;-80
2022/05/23 11:12:14;;;;;;;4.30;1.98;;;22.60;62.90;;;;;;5031443;28;20044;-80
2022/05/23 11:15:15;;;;;;;7.57;1.88;;;22.60;62.60;;;;;;5035466;28;20025;-81
2022/05/23 11:17:54;;;;;;;3.92;1.35;;;22.50;59.80;;;;;;5035896;28;20021;-83
2022/05/23 11:20:37;;;;;;;6.18;1.60;;;22.40;58.60;;;;;;5034515;28;20033;-83
2022/05/23 11:23:16;;;;;;;5.68;1.80;;;22.30;57.10;;;;;;5033906;28;20032;-83
2022/05/23 11:25:46;;;;;;;5.85;1.80;;;22.70;60.10;;;;;;5024142;28;20037;-81
2022/05/23 11:34:27;;;;;;;2.92;1.60;;;22.60;58.80;;;;;;5034040;28;20051;-83
2022/05/23 11:39:48;;;;;;;5.05;1.83;;;22.20;59.70;;;;;;5035954;28;20085;-80
2022/05/23 11:42:35;;;;;;;5.68;1.65;;;22.30;59.50;;;;;;5014390;28;20443;-80
2022/05/23 11:45:56;;;;;;;5.65;1.60;;;22.70;60.10;;;;;;5015688;28;20057;-83
2022/05/23 11:47:50;;;;;;;5.03;1.40;;;22.70;60.10;;;;;;5015117;28;20026;-83
2022/05/23 11:50:25;;;;;;;5.40;1.77;;;22.70;60.10;;;;;;5014451;28;20030;-82
2022/05/23 11:53:23;;;;;;;6.50;1.70;;;22.80;60.20;;;;;;5027946;28;20028;-83
2022/05/23 11:55:55;;;;;;;4.95;1.58;;;22.90;59.10;;;;;;5029735;28;20048;-81
2022/05/23 11:58:25;;;;;;;3.28;1.05;;;23.00;57.80;;;;;;5013904;28;20025;-81
2022/05/23 12:01:12;;;;;;;4.45;1.65;;;23.00;59.60;;;;;;5015298;28;20026;-80
2022/05/23 12:04:04;;;;;;;2.92;1.17;;;23.00;59.10;;;;;;5015168;28;20048;-80
2022/05/23 12:06:29;;;;;;;4.28;1.63;;;22.70;57.80;;;;;;5034715;28;20050;-80
2022/05/23 12:09:13;;;;;;;5.15;1.45;;;22.40;58.80;;;;;;5014828;28;20487;-83
2022/05/23 12:11:49;;;;;;;5.85;1.70;;;22.00;58.10;;;;;;5017487;28;20037;-83
2022/05/23 12:14:29;;;;;;;4.68;1.48;;;22.20;58.60;;;;;;5015053;28;20094;-83
2022/05/23 12:16:57;;;;;;;5.75;1.33;;;22.50;58.40;;;;;;5015057;28;20034;-80
2022/05/23 12:19:33;;;;;;;5.13;1.33;;;23.00;56.10;;;;;;5013727;28;20069;-80
2022/05/23 12:22:20;;;;;;;3.08;1.17;;;23.20;55.80;;;;;;5031682;28;20113;-80
2022/05/23 12:25:07;;;;;;;4.20;1.17;;;23.60;55.40;;;;;;5033213;28;20814;-81
2022/05/23 12:27:44;;;;;;;4.30;1.27;;;23.70;55.90;;;;;;5032469;28;20025;-80
2022/05/23 12:30:16;;;;;;;7.97;1.23;;;23.60;52.90;;;;;;5014788;28;20512;-80
2022/05/23 12:32:58;;;;;;;4.53;1.30;;;23.60;53.30;;;;;;5020014;28;20033;-80
2022/05/23 12:35:45;;;;;;;3.97;1.17;;;23.50;53.90;;;;;;5032784;28;20028;-80
2022/05/23 12:38:31;;;;;;;5.40;1.38;;;23.40;52.90;;;;;;5014268;28;20034;-80
2022/05/23 12:41:15;;;;;;;6.90;1.50;;;23.40;52.60;;;;;;5013484;28;20603;-80
2022/05/23 12:43:53;;;;;;;5.00;1.58;;;23.70;52.50;;;;;;5014032;28;20029;-80
2022/05/23 12:46:41;;;;;;;6.18;1.05;;;23.90;53.00;;;;;;5014395;28;20028;-80
2022/05/23 12:49:28;;;;;;;3.30;1.00;;;24.10;51.90;;;;;;5045624;28;20034;-81
2022/05/23 12:52:12;;;;;;;5.63;1.27;;;24.20;49.80;;;;;;5013187;28;20542;-80
2022/05/23 12:54:53;;;;;;;5.47;1.20;;;24.30;51.20;;;;;;5014186;28;20072;-80
2022/05/23 12:57:50;;;;;;;88.28;13.50;;;24.30;52.10;;;;;;5012702;28;20391;-80
2022/05/23 13:00:19;;;;;;;3.78;1.40;;;24.30;50.40;;;;;;5012977;28;20104;-80
2022/05/23 13:02:55;;;;;;;89.30;13.43;;;24.50;50.90;;;;;;5013836;28;20165;-80
2022/05/23 13:05:22;;;;;;;295.00;43.70;;;24.70;49.90;;;;;;5014284;28;20037;-80
2022/05/23 13:08:23;;;;;;;97.47;13.52;;;24.90;51.00;;;;;;5014155;28;20021;-80
2022/05/23 13:11:01;;;;;;;7.18;1.52;;;24.70;48.50;;;;;;5032202;28;20037;-80
2022/05/23 13:13:46;;;;;;;7.38;1.73;;;24.80;50.50;;;;;;5015648;28;20090;-80
2022/05/23 13:16:31;;;;;;;4.15;1.10;;;24.80;49.60;;;;;;5013918;28;20044;-80
2022/05/23 13:22:12;;;;;;;5.38;1.30;;;24.70;49.60;;;;;;5031206;28;20039;-80
2022/05/23 13:24:49;;;;;;;5.70;1.30;;;24.50;49.00;;;;;;5032500;28;20022;-80
2022/05/23 13:27:42;;;;;;;3.03;1.20;;;24.50;50.40;;;;;;5028988;28;20345;-80
2022/05/23 13:30:10;;;;;;;4.00;1.10;;;24.60;49.40;;;;;;5028833;28;20033;-80
2022/05/23 13:32:36;;;;;;;4.50;1.65;;;24.50;49.00;;;;;;5019232;28;20038;-80
2022/05/23 13:35:22;;;;;;;4.22;1.20;;;24.50;48.00;;;;;;5032063;28;20453;-80
2022/05/23 13:37:47;;;;;;;2.67;1.35;;;24.40;49.30;;;;;;5033435;28;20057;-80
2022/05/23 13:40:24;;;;;;;4.97;1.48;;;24.30;49.90;;;;;;5032928;28;20021;-80
2022/05/23 13:42:49;;;;;;;1.70;1.13;;;23.80;48.30;;;;;;5015934;28;20096;-80
2022/05/23 13:45:25;;;;;;;6.72;1.23;;;23.50;48.60;;;;;;5013598;28;20112;-80
2022/05/23 13:48:05;;;;;;;3.50;1.90;;;23.30;50.80;;;;;;5013298;28;20480;-80
2022/05/23 13:50:38;;;;;;;3.97;1.33;;;23.00;49.30;;;;;;5029019;28;20057;-79
2022/05/23 13:53:22;;;;;;;3.28;1.17;;;22.70;49.80;;;;;;5028762;28;20022;-80
2022/05/23 13:55:50;;;;;;;4.13;1.52;;;22.60;50.50;;;;;;5013375;28;20169;-80
2022/05/23 13:58:23;;;;;;;6.35;1.60;;;22.40;51.10;;;;;;5013038;28;20049;-80
2022/05/23 14:00:55;;;;;;;5.57;1.27;;;22.30;52.40;;;;;;5013305;28;20026;-80
2022/05/23 14:03:40;;;;;;;3.97;1.48;;;22.00;52.30;;;;;;5028696;28;20030;-82
2022/05/23 14:06:12;;;;;;;4.82;1.58;;;21.90;53.50;;;;;;5028822;28;20025;-80
2022/05/23 14:08:45;;;;;;;2.47;1.50;;;21.70;54.20;;;;;;5012244;28;20117;-80